TimeEDT,TemperatureF,Dew PointF,Humidity,Sea Level PressureIn,VisibilityMPH,Wind Direction,Wind SpeedMPH,Gust SpeedMPH,PrecipitationIn,Events,Conditions,WindDirDegrees,DateUTC
12:55 AM,69.1,66.0,90,29.98,4.0,North,6.9,-,N/A,,Clear,360,2013-09-08 04:55:00
1:55 AM,69.1,64.9,87,29.99,5.0,North,5.8,-,N/A,,Clear,10,2013-09-08 05:55:00
2:55 AM,68.0,64.9,90,29.98,5.0,North,4.6,-,N/A,,Clear,360,2013-09-08 06:55:00
3:55 AM,68.0,64.9,90,29.99,5.0,North,6.9,-,N/A,,Clear,10,2013-09-08 07:55:00
4:55 AM,68.0,64.0,87,30.00,7.0,NNE,5.8,-,N/A,,Clear,20,2013-09-08 08:55:00
5:55 AM,66.0,63.0,90,30.01,6.0,NE,3.5,-,N/A,,Clear,50,2013-09-08 09:55:00
6:55 AM,64.9,62.1,90,30.03,5.0,NNE,3.5,-,N/A,,Scattered Clouds,30,2013-09-08 10:55:00
7:55 AM,64.9,62.1,90,30.05,3.0,NE,4.6,-,N/A,,Partly Cloudy,40,2013-09-08 11:55:00
8:55 AM,66.9,63.0,87,30.06,7.0,ENE,8.1,-,N/A,,Partly Cloudy,70,2013-09-08 12:55:00
9:02 AM,66.2,62.6,88,30.07,8.0,ENE,8.1,-,N/A,,Mostly Cloudy,70,2013-09-08 13:02:00
9:55 AM,66.9,61.0,81,30.07,10.0,ENE,11.5,-,N/A,,Overcast,60,2013-09-08 13:55:00
10:55 AM,68.0,59.0,73,30.09,10.0,East,15.0,23.0,N/A,,Overcast,90,2013-09-08 14:55:00
11:55 AM,73.0,57.9,59,30.08,10.0,East,16.1,21.9,N/A,,Mostly Cloudy,90,2013-09-08 15:55:00
12:51 PM,75.2,57.2,53,30.09,10.0,ENE,13.8,20.7,N/A,,Scattered Clouds,60,2013-09-08 16:51:00
12:55 PM,75.9,57.9,54,30.08,10.0,ENE,16.1,-,N/A,,Scattered Clouds,70,2013-09-08 16:55:00
1:55 PM,78.1,57.9,50,30.07,10.0,East,12.7,21.9,N/A,,Scattered Clouds,100,2013-09-08 17:55:00
2:55 PM,79.0,55.9,45,30.06,10.0,East,10.4,-,N/A,,Scattered Clouds,80,2013-09-08 18:55:00
3:55 PM,79.0,53.1,40,30.05,10.0,ESE,8.1,-,N/A,,Mostly Cloudy,120,2013-09-08 19:55:00
4:55 PM,79.0,53.1,40,30.04,10.0,Variable,3.5,-,N/A,,Mostly Cloudy,0,2013-09-08 20:55:00
5:55 PM,77.0,53.1,43,30.03,10.0,ENE,11.5,-,N/A,,Mostly Cloudy,60,2013-09-08 21:55:00
6:55 PM,73.9,54.0,50,30.02,10.0,East,8.1,-,N/A,,Mostly Cloudy,80,2013-09-08 22:55:00
7:55 PM,72.0,54.0,53,30.01,10.0,East,8.1,-,N/A,,Mostly Cloudy,90,2013-09-08 23:55:00
8:55 PM,69.1,54.0,58,30.01,10.0,East,5.8,-,N/A,,Mostly Cloudy,100,2013-09-09 00:55:00
9:55 PM,68.0,54.0,61,30.01,10.0,ESE,8.1,-,N/A,,Mostly Cloudy,110,2013-09-09 01:55:00
10:55 PM,66.9,54.0,63,30.02,10.0,East,6.9,-,N/A,,Mostly Cloudy,90,2013-09-09 02:55:00
11:55 PM,66.0,54.0,65,30.04,10.0,East,9.2,-,N/A,,Clear,90,2013-09-09 03:55:00